PWSweather.com
Personal Weather Stations
Station Observations
KCOWOODL7
North Of Dinosaur Center, Woodland Park, CO 80863

North Of Dinosaur CenterWoodland Park, CO 80863

Lat: 38.998056, Lon: -105.050833

Elevation: 8555

Station Type: Ambient WS-2095

Latest ConditionsUpdated 2:30:03 PM MDT Monday, Sep 23, 2019
Currently Today's Max Today's Min Today's Average
Temperature 66.4°F19.1°C 66.7°F19.3°C 45.0°F7.2°C 53.8°F12.1°C
Dew Point 12.3°F-10.9°C 30.5°F-0.8°C 10.1°F-12.2°C 17.0°F-8.3°C
Winds Calm Calm 4.7 mph -7.6 kmh - - 0.9 mph 1.4 kmh
Wind Gusts 4.7 mph7.6 kmh 10.1 mph16.3 kmh - -
Humidity 12% 56% 12% 26%
Pressure 29.81 in1009.5 mb 29.85 in1010.8 mb 29.80 in1009.1 mb -
Hour Temp Dew Point Humidity Winds Wind Gusts Pressure Precip Precip Rate Daily Precip Total
02:30 PM 66.4°F19.1°C 12.3°F-10.9°C 12% Calm Calm 4.7 mph7.6 kmh 29.81 in1009.5 mb 0.00 in0.0 mm 0.00 in0.0 mm 0.00 in0.0 mm
02:15 PM 66.7°F19.3°C 12.6°F-10.8°C 12% 2.7 mph WSW4.3 kmh WSW 6.0 mph9.7 kmh 29.81 in1009.5 mb 0.00 in0.0 mm 0.00 in0.0 mm 0.00 in0.0 mm
02:00 PM 65.8°F18.8°C 13.7°F-10.2°C 13% 0.7 mph WSW1.1 kmh WSW 5.4 mph8.7 kmh 29.81 in1009.5 mb 0.00 in0.0 mm 0.00 in0.0 mm 0.00 in0.0 mm
01:45 PM 66.0°F18.9°C 13.8°F-10.1°C 13% 3.4 mph W5.5 kmh W 5.4 mph8.7 kmh 29.82 in1009.8 mb 0.00 in0.0 mm 0.00 in0.0 mm 0.00 in0.0 mm
01:30 PM 64.6°F18.1°C 12.7°F-10.7°C 13% 4.7 mph W7.6 kmh W 8.1 mph13.0 kmh 29.82 in1009.8 mb 0.00 in0.0 mm 0.00 in0.0 mm 0.00 in0.0 mm
01:15 PM 66.2°F19.0°C 12.1°F-11.1°C 12% 1.3 mph WSW2.1 kmh WSW 6.0 mph9.7 kmh 29.83 in1010.2 mb 0.00 in0.0 mm 0.00 in0.0 mm 0.00 in0.0 mm
01:00 PM 66.4°F19.1°C 12.3°F-10.9°C 12% 2.0 mph SW3.2 kmh SW 6.0 mph9.7 kmh 29.82 in1009.8 mb 0.00 in0.0 mm 0.00 in0.0 mm 0.00 in0.0 mm
12:45 PM 65.1°F18.4°C 13.1°F-10.5°C 13% 0.7 mph WSW1.1 kmh WSW 8.7 mph14.0 kmh 29.84 in1010.5 mb 0.00 in0.0 mm 0.00 in0.0 mm 0.00 in0.0 mm
12:30 PM 64.4°F18.0°C 12.5°F-10.8°C 13% 2.7 mph WSW4.3 kmh WSW 6.7 mph10.8 kmh 29.84 in1010.5 mb 0.00 in0.0 mm 0.00 in0.0 mm 0.00 in0.0 mm
12:15 PM 64.2°F17.9°C 14.1°F-9.9°C 14% 3.4 mph WNW5.5 kmh WNW 8.1 mph13.0 kmh 29.84 in1010.5 mb 0.00 in0.0 mm 0.00 in0.0 mm 0.00 in0.0 mm
12:00 PM 63.3°F17.4°C 13.3°F-10.4°C 14% 2.7 mph WSW4.3 kmh WSW 8.1 mph13.0 kmh 29.84 in1010.5 mb 0.00 in0.0 mm 0.00 in0.0 mm 0.00 in0.0 mm
11:45 AM 63.1°F17.3°C 14.8°F-9.6°C 15% 2.7 mph W4.3 kmh W 8.1 mph13.0 kmh 29.85 in1010.8 mb 0.00 in0.0 mm 0.00 in0.0 mm 0.00 in0.0 mm
11:30 AM 62.8°F17.1°C 14.5°F-9.7°C 15% 0.7 mph W1.1 kmh W 6.7 mph10.8 kmh 29.85 in1010.8 mb 0.00 in0.0 mm 0.00 in0.0 mm 0.00 in0.0 mm
11:15 AM 61.9°F16.6°C 15.2°F-9.3°C 16% 3.4 mph W5.5 kmh W 10.1 mph16.3 kmh 29.85 in1010.8 mb 0.00 in0.0 mm 0.00 in0.0 mm 0.00 in0.0 mm
11:00 AM 63.5°F17.5°C 15.1°F-9.4°C 15% 2.0 mph WSW3.2 kmh WSW 7.4 mph11.9 kmh 29.85 in1010.8 mb 0.00 in0.0 mm 0.00 in0.0 mm 0.00 in0.0 mm
10:45 AM 61.0°F16.1°C 15.9°F-8.9°C 17% 1.3 mph WSW2.1 kmh WSW 8.1 mph13.0 kmh 29.85 in1010.8 mb 0.00 in0.0 mm 0.00 in0.0 mm 0.00 in0.0 mm
10:30 AM 60.8°F16.0°C 15.7°F-9.1°C 17% 3.4 mph W5.5 kmh W 8.1 mph13.0 kmh 29.85 in1010.8 mb 0.00 in0.0 mm 0.00 in0.0 mm 0.00 in0.0 mm
10:15 AM 61.0°F16.1°C 15.9°F-8.9°C 17% 2.0 mph W3.2 kmh W 8.1 mph13.0 kmh 29.84 in1010.5 mb 0.00 in0.0 mm 0.00 in0.0 mm 0.00 in0.0 mm
10:00 AM 61.3°F16.3°C 16.2°F-8.8°C 17% 1.3 mph W2.1 kmh W 6.0 mph9.7 kmh 29.84 in1010.5 mb 0.00 in0.0 mm 0.00 in0.0 mm 0.00 in0.0 mm
09:45 AM 60.6°F15.9°C 16.9°F-8.4°C 18% 2.0 mph W3.2 kmh W 5.4 mph8.7 kmh 29.85 in1010.8 mb 0.00 in0.0 mm 0.00 in0.0 mm 0.00 in0.0 mm
09:30 AM 60.1°F15.6°C 17.7°F-7.9°C 19% 0.7 mph W1.1 kmh W 4.0 mph6.4 kmh 29.85 in1010.8 mb 0.00 in0.0 mm 0.00 in0.0 mm 0.00 in0.0 mm
09:15 AM 58.1°F14.5°C 18.4°F-7.6°C 21% Calm Calm 3.4 mph5.5 kmh 29.85 in1010.8 mb 0.00 in0.0 mm 0.00 in0.0 mm 0.00 in0.0 mm
09:00 AM 56.5°F13.6°C 17.0°F-8.3°C 21% Calm Calm 3.4 mph5.5 kmh 29.85 in1010.8 mb 0.00 in0.0 mm 0.00 in0.0 mm 0.00 in0.0 mm
08:45 AM 54.3°F12.4°C 16.3°F-8.7°C 22% Calm Calm 0.7 mph1.1 kmh 29.85 in1010.8 mb 0.00 in0.0 mm 0.00 in0.0 mm 0.00 in0.0 mm
08:30 AM 51.8°F11.0°C 21.4°F-5.9°C 30% 0.7 mph W1.1 kmh W 1.3 mph2.1 kmh 29.85 in1010.8 mb 0.00 in0.0 mm 0.00 in0.0 mm 0.00 in0.0 mm
08:15 AM 50.7°F10.4°C 18.8°F-7.3°C 28% Calm Calm 1.3 mph2.1 kmh 29.84 in1010.5 mb 0.00 in0.0 mm 0.00 in0.0 mm 0.00 in0.0 mm
08:00 AM 50.0°F10.0°C 15.6°F-9.1°C 25% 0.7 mph S1.1 kmh S 1.3 mph2.1 kmh 29.84 in1010.5 mb 0.00 in0.0 mm 0.00 in0.0 mm 0.00 in0.0 mm
07:45 AM 47.3°F8.5°C 17.5°F-8.1°C 30% Calm Calm -- 29.84 in1010.5 mb 0.00 in0.0 mm 0.00 in0.0 mm 0.00 in0.0 mm
07:30 AM 48.4°F9.1°C 14.2°F-9.9°C 25% Calm Calm -- 29.84 in1010.5 mb 0.00 in0.0 mm 0.00 in0.0 mm 0.00 in0.0 mm
07:15 AM 46.2°F7.9°C 14.1°F-9.9°C 27% Calm Calm 1.3 mph2.1 kmh 29.83 in1010.2 mb 0.00 in0.0 mm 0.00 in0.0 mm 0.00 in0.0 mm
07:00 AM 47.7°F8.7°C 15.3°F-9.3°C 27% Calm Calm 1.3 mph2.1 kmh 29.82 in1009.8 mb 0.00 in0.0 mm 0.00 in0.0 mm 0.00 in0.0 mm
06:45 AM 48.2°F9.0°C 13.1°F-10.5°C 24% Calm Calm 0.7 mph1.1 kmh 29.82 in1009.8 mb 0.00 in0.0 mm 0.00 in0.0 mm 0.00 in0.0 mm
06:30 AM 47.8°F8.8°C 13.7°F-10.2°C 25% Calm Calm 2.0 mph3.2 kmh 29.82 in1009.8 mb 0.00 in0.0 mm 0.00 in0.0 mm 0.00 in0.0 mm
06:15 AM 49.8°F9.9°C 12.5°F-10.8°C 22% Calm Calm 2.0 mph3.2 kmh 29.82 in1009.8 mb 0.00 in0.0 mm 0.00 in0.0 mm 0.00 in0.0 mm
06:00 AM 50.0°F10.0°C 11.6°F-11.3°C 21% 0.7 mph WSW1.1 kmh WSW 4.7 mph7.6 kmh 29.81 in1009.5 mb 0.00 in0.0 mm 0.00 in0.0 mm 0.00 in0.0 mm
05:45 AM 48.9°F9.4°C 10.7°F-11.8°C 21% Calm Calm 1.3 mph2.1 kmh 29.81 in1009.5 mb 0.00 in0.0 mm 0.00 in0.0 mm 0.00 in0.0 mm
05:30 AM 49.3°F9.6°C 11.0°F-11.7°C 21% 1.3 mph ENE2.1 kmh ENE 2.0 mph3.2 kmh 29.81 in1009.5 mb 0.00 in0.0 mm 0.00 in0.0 mm 0.00 in0.0 mm
05:15 AM 49.5°F9.7°C 11.2°F-11.6°C 21% 1.3 mph NE2.1 kmh NE 3.4 mph5.5 kmh 29.81 in1009.5 mb 0.00 in0.0 mm 0.00 in0.0 mm 0.00 in0.0 mm
05:00 AM 48.2°F9.0°C 10.1°F-12.2°C 21% 0.7 mph NNW1.1 kmh NNW 2.0 mph3.2 kmh 29.81 in1009.5 mb 0.00 in0.0 mm 0.00 in0.0 mm 0.00 in0.0 mm
04:45 AM 47.1°F8.4°C 11.3°F-11.5°C 23% 0.7 mph N1.1 kmh N 2.0 mph3.2 kmh 29.81 in1009.5 mb 0.00 in0.0 mm 0.00 in0.0 mm 0.00 in0.0 mm
04:30 AM 47.7°F8.7°C 11.7°F-11.3°C 23% 1.3 mph NNE2.1 kmh NNE 2.0 mph3.2 kmh 29.81 in1009.5 mb 0.00 in0.0 mm 0.00 in0.0 mm 0.00 in0.0 mm
04:15 AM 48.7°F9.3°C 11.6°F-11.3°C 22% Calm Calm 1.3 mph2.1 kmh 29.81 in1009.5 mb 0.00 in0.0 mm 0.00 in0.0 mm 0.00 in0.0 mm
04:00 AM 46.9°F8.3°C 13.0°F-10.6°C 25% Calm Calm -- 29.81 in1009.5 mb 0.00 in0.0 mm 0.00 in0.0 mm 0.00 in0.0 mm
03:45 AM 46.9°F8.3°C 14.7°F-9.6°C 27% Calm Calm 1.3 mph2.1 kmh 29.80 in1009.1 mb 0.00 in0.0 mm 0.00 in0.0 mm 0.00 in0.0 mm
03:30 AM 47.8°F8.8°C 15.5°F-9.2°C 27% Calm Calm -- 29.81 in1009.5 mb 0.00 in0.0 mm 0.00 in0.0 mm 0.00 in0.0 mm
03:15 AM 48.6°F9.2°C 16.1°F-8.8°C 27% Calm Calm 1.3 mph2.1 kmh 29.81 in1009.5 mb 0.00 in0.0 mm 0.00 in0.0 mm 0.00 in0.0 mm
03:00 AM 47.5°F8.6°C 18.4°F-7.6°C 31% Calm Calm 1.3 mph2.1 kmh 29.81 in1009.5 mb 0.00 in0.0 mm 0.00 in0.0 mm 0.00 in0.0 mm
02:45 AM 49.5°F9.7°C 19.3°F-7.1°C 30% Calm Calm 1.3 mph2.1 kmh 29.81 in1009.5 mb 0.00 in0.0 mm 0.00 in0.0 mm 0.00 in0.0 mm
02:30 AM 47.7°F8.7°C 21.4°F-5.9°C 35% Calm Calm 0.7 mph1.1 kmh 29.81 in1009.5 mb 0.00 in0.0 mm 0.00 in0.0 mm 0.00 in0.0 mm
02:15 AM 47.3°F8.5°C 23.6°F-4.7°C 39% Calm Calm 1.3 mph2.1 kmh 29.82 in1009.8 mb 0.00 in0.0 mm 0.00 in0.0 mm 0.00 in0.0 mm
02:00 AM 46.2°F7.9°C 24.4°F-4.2°C 42% 0.7 mph NE1.1 kmh NE 2.0 mph3.2 kmh 29.82 in1009.8 mb 0.00 in0.0 mm 0.00 in0.0 mm 0.00 in0.0 mm
01:45 AM 46.6°F8.1°C 25.9°F-3.4°C 44% Calm Calm 2.7 mph4.3 kmh 29.82 in1009.8 mb 0.00 in0.0 mm 0.00 in0.0 mm 0.00 in0.0 mm
01:30 AM 48.2°F9.0°C 30.4°F-0.9°C 50% 0.7 mph E1.1 kmh E 4.0 mph6.4 kmh 29.82 in1009.8 mb 0.00 in0.0 mm 0.00 in0.0 mm 0.00 in0.0 mm
01:15 AM 45.5°F7.5°C 30.3°F-0.9°C 55% Calm Calm 2.0 mph3.2 kmh 29.82 in1009.8 mb 0.00 in0.0 mm 0.00 in0.0 mm 0.00 in0.0 mm
01:00 AM 45.0°F7.2°C 30.2°F-1.0°C 56% Calm Calm 2.0 mph3.2 kmh 29.82 in1009.8 mb 0.00 in0.0 mm 0.00 in0.0 mm 0.00 in0.0 mm
12:45 AM 45.3°F7.4°C 30.1°F-1.1°C 55% Calm Calm 2.0 mph3.2 kmh 29.82 in1009.8 mb 0.00 in0.0 mm 0.00 in0.0 mm 0.00 in0.0 mm
12:30 AM 45.7°F7.6°C 30.5°F-0.8°C 55% Calm Calm 2.7 mph4.3 kmh 29.82 in1009.8 mb 0.00 in0.0 mm 0.00 in0.0 mm 0.00 in0.0 mm
12:15 AM 45.1°F7.3°C 30.4°F-0.9°C 56% 0.7 mph E1.1 kmh E 2.0 mph3.2 kmh 29.82 in1009.8 mb 0.00 in0.0 mm 0.00 in0.0 mm 0.00 in0.0 mm
12:00 AM 45.0°F7.2°C 29.8°F-1.2°C 55% 1.3 mph E2.1 kmh E 2.7 mph4.3 kmh 29.82 in1009.8 mb 0.00 in0.0 mm 0.00 in0.0 mm 0.00 in0.0 mm